Terminal Aerodrome Forecast
Issued by NWS Sterling, VA

Current Version | Previous Version | Graphics & Text | Print | Product List | Glossary On
Versions: 1 2 3 4 5 6 7 8 9 10 11 12 13 14 15 16 17 18 19 20 21 22
000
FTUS41 KLWX 180500
TAFIAD
TAF
KIAD 180532Z 1806/1912 30011KT P6SM BKN050
     FM181200 30009KT P6SM SCT250
     FM181500 30012G20KT P6SM SCT250
     FM182200 31010KT P6SM SCT110
     FM190200 31006KT P6SM BKN110
     FM190800 30006KT P6SM SCT090=

USA.gov is the U.S. government's official web portal to all federal, state and local government web resources and services.